createdAt,value
2018-09-26T00:01:21.939Z,101930.89
2018-09-26T00:03:53.242Z,101930.53
2018-09-26T00:06:20.817Z,101920.86
2018-09-26T00:08:49.884Z,101922.22
2018-09-26T00:11:17.635Z,101921.41
2018-09-26T00:13:46.334Z,101921.41
2018-09-26T00:16:14.812Z,101927.63
2018-09-26T00:18:42.365Z,101927.26
2018-09-26T00:21:11.078Z,101924.65
2018-09-26T00:23:38.658Z,101918.55
2018-09-26T00:26:07.414Z,101922.55
2018-09-26T00:28:34.971Z,101928.73
2018-09-26T00:31:02.991Z,101924.80
2018-09-26T00:33:31.331Z,101931.00
2018-09-26T00:35:59.005Z,101933.65
2018-09-26T00:38:26.995Z,101927.98
2018-09-26T00:40:54.598Z,101921.48
2018-09-26T00:43:23.465Z,101913.22
2018-09-26T00:45:52.850Z,101900.91
2018-09-26T00:48:20.370Z,101891.61
2018-09-26T00:50:51.558Z,101887.20
2018-09-26T00:53:19.178Z,101875.41
2018-09-26T00:55:47.930Z,101874.13
2018-09-26T00:58:16.478Z,101871.99
2018-09-26T01:00:53.049Z,101870.27
2018-09-26T01:03:20.916Z,101868.54
2018-09-26T01:05:48.540Z,101856.64
2018-09-26T01:08:16.393Z,101851.34
2018-09-26T01:10:43.977Z,101844.73
2018-09-26T01:13:11.543Z,101844.70
2018-09-26T01:15:41.416Z,101841.06
2018-09-26T01:18:08.983Z,101836.61
2018-09-26T01:20:37.115Z,101832.09
2018-09-26T01:23:05.055Z,101835.43
2018-09-26T01:25:34.640Z,101824.36
2018-09-26T01:28:02.221Z,101828.26
2018-09-26T01:30:32.278Z,101833.47
2018-09-26T01:32:59.835Z,101829.84
2018-09-26T01:35:27.395Z,101836.33
2018-09-26T01:37:55.490Z,101827.39
2018-09-26T01:40:24.015Z,101837.83
2018-09-26T01:42:51.627Z,101835.10
2018-09-26T01:45:20.006Z,101831.94
2018-09-26T01:47:47.610Z,101827.97
2018-09-26T01:50:15.161Z,101829.65
2018-09-26T01:52:44.306Z,101823.91
2018-09-26T01:55:11.895Z,101813.89
2018-09-26T01:57:45.061Z,101812.77
2018-09-26T02:00:15.151Z,101813.40
2018-09-26T02:02:42.702Z,101802.61
2018-09-26T02:05:10.294Z,101802.32
2018-09-26T02:07:38.333Z,101806.81
2018-09-26T02:10:05.869Z,101807.73
2018-09-26T02:12:33.392Z,101811.70
2018-09-26T02:15:00.910Z,101810.38
2018-09-26T02:17:28.395Z,101807.73
2018-09-26T02:19:55.912Z,101814.42
2018-09-26T02:22:23.465Z,101801.30
2018-09-26T02:24:51.013Z,101803.95
2018-09-26T02:27:18.566Z,101797.74
2018-09-26T02:29:46.097Z,101803.07
2018-09-26T02:32:13.606Z,101799.58
2018-09-26T02:34:41.135Z,101793.81
2018-09-26T02:37:09.876Z,101788.08
2018-09-26T02:39:37.545Z,101789.80
2018-09-26T02:42:05.109Z,101800.02
2018-09-26T02:44:32.635Z,101801.45
2018-09-26T02:47:00.157Z,101802.45
2018-09-26T02:49:27.680Z,101793.75
2018-09-26T02:51:55.209Z,101792.58
2018-09-26T02:54:22.780Z,101794.45
2018-09-26T02:56:50.749Z,101800.30
2018-09-26T02:59:18.297Z,101792.87
2018-09-26T03:01:46.577Z,101796.88
2018-09-26T03:04:14.126Z,101796.08
2018-09-26T03:06:41.769Z,101793.51
2018-09-26T03:09:10.348Z,101796.22
2018-09-26T03:11:38.373Z,101789.54
2018-09-26T03:14:05.913Z,101775.87
2018-09-26T03:16:33.993Z,101769.63
2018-09-26T03:19:01.612Z,101764.64
2018-09-26T03:21:29.180Z,101763.20
2018-09-26T03:23:56.696Z,101767.82
2018-09-26T03:26:24.608Z,101775.16
2018-09-26T03:28:52.133Z,101776.41
2018-09-26T03:31:19.670Z,101777.58
2018-09-26T03:33:47.671Z,101762.47
2018-09-26T03:36:15.139Z,101757.18
2018-09-26T03:38:43.298Z,101747.48
2018-09-26T03:41:12.220Z,101746.60
2018-09-26T03:43:39.797Z,101745.80
2018-09-26T03:46:08.346Z,101742.79
2018-09-26T03:48:35.905Z,101742.86
2018-09-26T03:51:03.480Z,101747.27
2018-09-26T03:53:31.017Z,101746.06
2018-09-26T03:55:58.554Z,101755.66
2018-09-26T03:58:26.114Z,101754.69
2018-09-26T04:00:53.662Z,101758.22
2018-09-26T04:03:23.604Z,101762.63
2018-09-26T04:05:51.120Z,101758.81
2018-09-26T04:08:18.638Z,101761.09
2018-09-26T04:10:46.563Z,101766.94
2018-09-26T04:13:14.165Z,101762.20
2018-09-26T04:15:47.803Z,101748.17
2018-09-26T04:18:15.716Z,101738.12
2018-09-26T04:20:43.290Z,101732.36
2018-09-26T04:23:10.804Z,101730.14
2018-09-26T04:25:38.788Z,101728.34
2018-09-26T04:28:06.376Z,101730.59
2018-09-26T04:30:34.039Z,101740.36
2018-09-26T04:33:02.106Z,101736.44
2018-09-26T04:35:29.497Z,101717.12
2018-09-26T04:37:57.021Z,101731.26
2018-09-26T04:40:24.867Z,101730.49
2018-09-26T04:42:52.385Z,101730.64
2018-09-26T04:45:21.249Z,101721.98
2018-09-26T04:47:49.095Z,101701.83
2018-09-26T04:50:16.605Z,101713.17
2018-09-26T04:52:45.970Z,101707.17
2018-09-26T04:55:14.452Z,101687.77
2018-09-26T04:57:42.011Z,101685.72
2018-09-26T05:00:09.539Z,101686.66
2018-09-26T05:02:37.413Z,101699.36
2018-09-26T05:05:04.989Z,101719.73
2018-09-26T05:07:32.531Z,101725.04
2018-09-26T05:10:00.552Z,101715.72
2018-09-26T05:12:28.661Z,101707.51
2018-09-26T05:14:56.190Z,101718.94
2018-09-26T05:17:24.098Z,101717.20
2018-09-26T05:19:51.760Z,101715.51
2018-09-26T05:22:19.936Z,101722.22
2018-09-26T05:24:48.584Z,101716.81
2018-09-26T05:27:16.104Z,101709.73
2018-09-26T05:29:43.661Z,101710.84
2018-09-26T05:32:11.630Z,101702.71
2018-09-26T05:34:39.144Z,101701.50
2018-09-26T05:37:06.735Z,101706.88
2018-09-26T05:39:35.528Z,101716.61
2018-09-26T05:42:03.117Z,101711.36
2018-09-26T05:44:31.247Z,101724.95
2018-09-26T05:46:59.398Z,101715.17
2018-09-26T05:49:26.966Z,101725.75
2018-09-26T05:51:54.530Z,101725.75
2018-09-26T05:54:22.497Z,101727.12
2018-09-26T05:56:49.996Z,101724.07
2018-09-26T05:59:17.541Z,101721.42
2018-09-26T06:01:45.528Z,101729.77
2018-09-26T06:04:13.083Z,101726.23
2018-09-26T06:06:40.599Z,101721.23
2018-09-26T06:09:09.755Z,101725.44
2018-09-26T06:11:37.307Z,101728.77
2018-09-26T06:14:04.940Z,101737.79
2018-09-26T06:16:32.957Z,101734.94
2018-09-26T06:19:00.496Z,101738.09
2018-09-26T06:21:28.081Z,101731.16
2018-09-26T06:23:57.015Z,101727.25
2018-09-26T06:26:24.580Z,101722.85
2018-09-26T06:28:52.144Z,101731.20
2018-09-26T06:31:20.092Z,101735.59
2018-09-26T06:33:47.660Z,101731.57
2018-09-26T06:36:15.201Z,101728.44
2018-09-26T06:38:44.045Z,101722.28
2018-09-26T06:41:11.760Z,101711.22
2018-09-26T06:43:39.309Z,101711.77
2018-09-26T06:46:08.155Z,101707.53
2018-09-26T06:48:35.657Z,101702.77
2018-09-26T06:51:04.149Z,101700.70
2018-09-26T06:53:34.029Z,101695.02
2018-09-26T06:56:01.581Z,101690.26
2018-09-26T06:58:29.101Z,101694.28
2018-09-26T07:00:57.096Z,101687.64
2018-09-26T07:03:24.669Z,101687.53
2018-09-26T07:05:52.168Z,101681.61
2018-09-26T07:08:21.707Z,101689.18
2018-09-26T07:10:49.288Z,101681.64
2018-09-26T07:13:18.070Z,101683.94
2018-09-26T07:15:46.017Z,101680.02
2018-09-26T07:18:13.549Z,101687.22
2018-09-26T07:20:41.870Z,101677.02
2018-09-26T07:23:09.867Z,101672.30
2018-09-26T07:25:37.462Z,101668.20
2018-09-26T07:28:04.995Z,101671.55
2018-09-26T07:30:34.973Z,101674.03
2018-09-26T07:33:02.512Z,101674.19
2018-09-26T07:35:34.578Z,101670.47
2018-09-26T07:38:03.481Z,101676.31
2018-09-26T07:40:32.560Z,101668.17
2018-09-26T07:43:03.232Z,101669.05
2018-09-26T07:45:30.780Z,101676.12
2018-09-26T07:47:58.341Z,101680.33
2018-09-26T07:50:27.012Z,101680.56
2018-09-26T07:52:54.701Z,101675.48
2018-09-26T07:55:22.223Z,101677.05
2018-09-26T07:57:50.092Z,101679.09
2018-09-26T08:00:17.695Z,101678.09
2018-09-26T08:02:45.301Z,101690.70
2018-09-26T08:05:13.237Z,101690.57
2018-09-26T08:07:40.803Z,101693.36
2018-09-26T08:10:08.382Z,101689.55
2018-09-26T08:12:38.574Z,101697.31
2018-09-26T08:15:06.101Z,101694.48
2018-09-26T08:17:34.757Z,101693.94
2018-09-26T08:20:03.251Z,101698.22
2018-09-26T08:22:30.771Z,101685.64
2018-09-26T08:24:59.344Z,101691.45
2018-09-26T08:27:29.020Z,101689.24
2018-09-26T08:29:57.594Z,101694.87
2018-09-26T08:32:25.109Z,101698.13
2018-09-26T08:34:53.968Z,101695.03
2018-09-26T08:37:22.159Z,101694.53
2018-09-26T08:39:50.836Z,101680.23
2018-09-26T08:42:20.708Z,101678.84
2018-09-26T08:44:48.353Z,101675.92
2018-09-26T08:47:15.909Z,101684.34
2018-09-26T08:49:46.733Z,101676.86
2018-09-26T08:52:14.274Z,101675.11
2018-09-26T08:54:41.800Z,101687.83
2018-09-26T08:57:10.761Z,101684.37
2018-09-26T08:59:38.943Z,101682.95
2018-09-26T09:02:07.209Z,101680.42
2018-09-26T09:04:35.147Z,101686.86
2018-09-26T09:07:02.701Z,101688.66
2018-09-26T09:09:30.255Z,101692.03
2018-09-26T09:11:58.252Z,101693.10
2018-09-26T09:14:26.913Z,101696.05
2018-09-26T09:16:54.466Z,101688.13
2018-09-26T09:19:22.569Z,101680.58
2018-09-26T09:21:50.157Z,101678.60
2018-09-26T09:24:17.745Z,101685.95
2018-09-26T09:26:46.106Z,101678.44
2018-09-26T09:29:15.528Z,101688.38
2018-09-26T09:31:43.030Z,101696.94
2018-09-26T09:34:12.821Z,101688.34
2018-09-26T09:36:40.462Z,101690.72
2018-09-26T09:39:08.941Z,101689.09
2018-09-26T09:41:37.772Z,101679.48
2018-09-26T09:44:05.338Z,101680.64
2018-09-26T09:46:32.932Z,101683.61
2018-09-26T09:49:00.894Z,101673.87
2018-09-26T09:51:28.488Z,101677.30
2018-09-26T09:53:56.029Z,101673.52
2018-09-26T09:56:28.193Z,101679.02
2018-09-26T09:58:55.721Z,101674.44
2018-09-26T10:01:29.062Z,101677.08
2018-09-26T10:03:58.582Z,101677.72
2018-09-26T10:06:26.210Z,101678.09
2018-09-26T10:08:55.034Z,101673.23
2018-09-26T10:11:23.673Z,101674.45
2018-09-26T10:13:51.421Z,101676.61
2018-09-26T10:16:20.087Z,101670.50
2018-09-26T10:18:50.151Z,101674.42
2018-09-26T10:21:19.156Z,101672.22
2018-09-26T10:23:46.681Z,101668.55
2018-09-26T10:26:14.585Z,101663.56
2018-09-26T10:28:43.285Z,101661.84
2018-09-26T10:31:12.499Z,101664.06
2018-09-26T10:33:43.361Z,101659.79
2018-09-26T10:36:11.613Z,101663.30
2018-09-26T10:38:39.992Z,101658.59
2018-09-26T10:41:08.588Z,101650.45
2018-09-26T10:43:36.758Z,101657.67
2018-09-26T10:46:04.356Z,101652.70
2018-09-26T10:48:33.123Z,101656.30
2018-09-26T10:51:03.669Z,101648.84
2018-09-26T10:53:32.391Z,101656.92
2018-09-26T10:56:00.580Z,101648.84
2018-09-26T10:58:28.119Z,101645.66
2018-09-26T11:00:55.658Z,101643.91
2018-09-26T11:03:23.497Z,101638.61
2018-09-26T11:05:51.749Z,101637.83
2018-09-26T11:08:20.817Z,101629.39
2018-09-26T11:10:50.112Z,101633.75
2018-09-26T11:13:19.318Z,101630.77
2018-09-26T11:15:46.870Z,101629.04
2018-09-26T11:18:15.208Z,101620.83
2018-09-26T11:20:42.955Z,101617.16
2018-09-26T11:23:11.088Z,101618.86
2018-09-26T11:25:39.913Z,101613.14
2018-09-26T11:28:08.731Z,101615.88
2018-09-26T11:30:36.285Z,101610.16
2018-09-26T11:33:05.349Z,101609.09
2018-09-26T11:35:32.857Z,101606.80
2018-09-26T11:38:00.444Z,101606.47
2018-09-26T11:40:29.286Z,101605.09
2018-09-26T11:42:57.713Z,101596.75
2018-09-26T11:45:25.539Z,101594.59
2018-09-26T11:47:53.520Z,101589.16
2018-09-26T11:50:21.339Z,101579.55
2018-09-26T11:52:48.961Z,101588.48
2018-09-26T11:55:16.910Z,101589.47
2018-09-26T11:57:44.524Z,101582.78
2018-09-26T12:00:12.167Z,101584.02
2018-09-26T12:02:40.274Z,101579.30
2018-09-26T12:05:07.827Z,101581.38
2018-09-26T12:07:35.791Z,101570.12
2018-09-26T12:10:03.658Z,101565.14
2018-09-26T12:12:32.267Z,101570.31
2018-09-26T12:14:59.938Z,101577.98
2018-09-26T12:17:27.768Z,101576.28
2018-09-26T12:19:55.313Z,101565.98
2018-09-26T12:22:23.881Z,101560.65
2018-09-26T12:24:52.750Z,101557.43
2018-09-26T12:27:20.291Z,101556.80
2018-09-26T12:29:49.991Z,101548.98
2018-09-26T12:32:19.665Z,101550.45
2018-09-26T12:34:47.913Z,101551.71
2018-09-26T12:37:15.508Z,101554.59
2018-09-26T12:39:44.517Z,101551.37
2018-09-26T12:42:12.184Z,101551.61
2018-09-26T12:44:41.511Z,101546.16
2018-09-26T12:47:11.734Z,101548.00
2018-09-26T12:49:40.864Z,101551.49
2018-09-26T12:52:09.521Z,101545.03
2018-09-26T12:54:37.084Z,101541.46
2018-09-26T12:57:06.064Z,101540.30
2018-09-26T12:59:33.884Z,101537.14
2018-09-26T13:02:01.446Z,101534.87
2018-09-26T13:04:29.081Z,101532.97
2018-09-26T13:06:57.014Z,101521.69
2018-09-26T13:09:24.567Z,101516.60
2018-09-26T13:11:52.371Z,101520.60
2018-09-26T13:14:21.716Z,101510.08
2018-09-26T13:16:49.261Z,101507.80
2018-09-26T13:19:16.826Z,101509.16
2018-09-26T13:21:47.740Z,101504.53
2018-09-26T13:24:15.755Z,101494.79
2018-09-26T13:26:44.333Z,101495.63
2018-09-26T13:29:13.256Z,101492.79
2018-09-26T13:31:40.761Z,101491.84
2018-09-26T13:34:08.304Z,101495.34
2018-09-26T13:36:40.792Z,101488.88
2018-09-26T13:39:10.877Z,101493.77
2018-09-26T13:41:39.470Z,101488.37
2018-09-26T13:44:07.492Z,101486.02
2018-09-26T13:46:36.866Z,101483.88
2018-09-26T13:49:04.901Z,101484.09
2018-09-26T13:51:33.803Z,101484.45
2018-09-26T13:54:01.389Z,101483.80
2018-09-26T13:56:29.592Z,101481.17
2018-09-26T13:58:58.770Z,101468.70
2018-09-26T14:01:26.334Z,101459.62
2018-09-26T14:03:54.704Z,101453.42
2018-09-26T14:06:22.685Z,101448.09
2018-09-26T14:08:50.238Z,101446.16
2018-09-26T14:11:19.421Z,101443.02
2018-09-26T14:13:48.036Z,101439.44
2018-09-26T14:16:15.576Z,101435.59
2018-09-26T14:18:43.146Z,101430.14
2018-09-26T14:21:11.021Z,101423.65
2018-09-26T14:23:39.356Z,101423.82
2018-09-26T14:26:06.888Z,101428.23
2018-09-26T14:28:35.842Z,101422.64
2018-09-26T14:31:04.737Z,101423.52
2018-09-26T14:33:32.337Z,101421.85
2018-09-26T14:36:01.068Z,101419.14
2018-09-26T14:38:31.596Z,101422.51
2018-09-26T14:40:59.145Z,101418.10
2018-09-26T14:43:27.453Z,101414.30
2018-09-26T14:45:55.031Z,101407.30
2018-09-26T14:48:23.606Z,101412.78
2018-09-26T14:50:51.548Z,101412.57
2018-09-26T14:53:21.072Z,101411.80
2018-09-26T14:55:49.613Z,101409.91
2018-09-26T14:58:18.396Z,101411.63
2018-09-26T15:00:48.281Z,101400.50
2018-09-26T15:03:16.444Z,101411.83
2018-09-26T15:05:44.392Z,101410.31
2018-09-26T15:08:14.944Z,101407.41
2018-09-26T15:10:42.467Z,101402.93
2018-09-26T15:13:10.334Z,101401.90
2018-09-26T15:15:37.897Z,101404.39
2018-09-26T15:18:05.457Z,101413.72
2018-09-26T15:20:34.671Z,101406.81
2018-09-26T15:23:02.229Z,101406.50
2018-09-26T15:25:29.805Z,101402.84
2018-09-26T15:27:57.902Z,101396.10
2018-09-26T15:30:25.500Z,101384.16
2018-09-26T15:32:53.299Z,101388.83
2018-09-26T15:35:22.388Z,101387.81
2018-09-26T15:37:50.198Z,101383.36
2018-09-26T15:40:18.552Z,101382.27
2018-09-26T15:42:48.097Z,101387.32
2018-09-26T15:45:16.340Z,101390.88
2018-09-26T15:47:44.494Z,101399.22
2018-09-26T15:50:15.613Z,101396.92
2018-09-26T15:52:44.190Z,101399.51
2018-09-26T15:55:11.755Z,101405.36
2018-09-26T15:57:46.021Z,101409.23
2018-09-26T16:00:13.562Z,101406.14
2018-09-26T16:02:41.116Z,101404.98
2018-09-26T16:05:08.963Z,101419.72
2018-09-26T16:07:36.484Z,101411.34
2018-09-26T16:10:06.159Z,101408.70
2018-09-26T16:12:34.061Z,101409.09
2018-09-26T16:15:02.473Z,101415.63
2018-09-26T16:17:30.945Z,101408.98
2018-09-26T16:19:59.777Z,101411.81
2018-09-26T16:22:27.441Z,101409.20
2018-09-26T16:24:55.222Z,101406.51
2018-09-26T16:27:24.545Z,101398.38
2018-09-26T16:29:52.073Z,101395.63
2018-09-26T16:32:20.574Z,101397.80
2018-09-26T16:34:50.509Z,101399.77
2018-09-26T16:37:18.048Z,101400.23
2018-09-26T16:39:46.262Z,101396.84
2018-09-26T16:42:15.245Z,101397.17
2018-09-26T16:44:42.813Z,101398.81
2018-09-26T16:47:11.239Z,101399.84
2018-09-26T16:49:40.012Z,101404.17
2018-09-26T16:52:07.602Z,101405.84
2018-09-26T16:54:35.108Z,101408.94
2018-09-26T16:57:03.962Z,101406.19
2018-09-26T16:59:31.518Z,101404.22
2018-09-26T17:02:00.069Z,101408.20
2018-09-26T17:04:29.791Z,101409.94
2018-09-26T17:06:58.259Z,101412.92
2018-09-26T17:09:25.804Z,101403.40
2018-09-26T17:11:56.232Z,101407.22
2018-09-26T17:14:23.817Z,101411.87
2018-09-26T17:16:52.413Z,101417.38
2018-09-26T17:19:20.594Z,101401.88
2018-09-26T17:21:48.715Z,101408.74
2018-09-26T17:24:16.664Z,101405.57
2018-09-26T17:26:44.161Z,101406.43
2018-09-26T17:29:11.736Z,101408.95
2018-09-26T17:31:44.279Z,101418.63
2018-09-26T17:34:15.939Z,101414.47
2018-09-26T17:36:44.225Z,101413.34
2018-09-26T17:39:13.514Z,101410.30
2018-09-26T17:41:41.947Z,101410.05
2018-09-26T17:44:10.116Z,101404.92
2018-09-26T17:46:38.249Z,101410.77
2018-09-26T17:49:05.803Z,101409.06
2018-09-26T17:51:33.481Z,101400.61
2018-09-26T17:54:02.435Z,101412.06
2018-09-26T17:56:32.611Z,101415.47
2018-09-26T17:59:02.227Z,101412.01
2018-09-26T18:01:30.909Z,101409.56
2018-09-26T18:06:30.056Z,101405.07
2018-09-26T18:08:58.874Z,101402.02
2018-09-26T18:11:27.392Z,101403.11
2018-09-26T18:13:54.935Z,101415.02
2018-09-26T18:16:26.816Z,101418.27
2018-09-26T18:18:54.534Z,101421.47
2018-09-26T18:21:22.621Z,101422.97
2018-09-26T18:23:51.303Z,101424.82
2018-09-26T18:26:18.836Z,101422.55
2018-09-26T18:28:48.514Z,101421.23
2018-09-26T18:31:16.414Z,101437.23
2018-09-26T18:33:44.951Z,101436.25
2018-09-26T18:36:13.333Z,101425.91
2018-09-26T18:38:44.442Z,101429.62
2018-09-26T18:41:12.765Z,101430.63
2018-09-26T18:43:40.322Z,101446.25
2018-09-26T18:46:08.262Z,101447.25
2018-09-26T18:48:35.793Z,101449.60
2018-09-26T18:51:07.139Z,101453.19
2018-09-26T18:53:36.427Z,101456.37
2018-09-26T18:56:04.157Z,101458.33
2018-09-26T18:58:33.368Z,101466.98
2018-09-26T19:01:03.561Z,101462.99
2018-09-26T19:03:34.235Z,101461.59
2018-09-26T19:06:03.100Z,101461.49
2018-09-26T19:08:39.661Z,101460.37
2018-09-26T19:11:07.877Z,101462.48
2018-09-26T19:13:38.263Z,101456.69
2018-09-26T19:16:08.889Z,101453.27
2018-09-26T19:18:37.270Z,101450.00
2018-09-26T19:21:05.939Z,101446.20
2018-09-26T19:23:34.495Z,101450.30
2018-09-26T19:26:04.771Z,101458.91
2018-09-26T19:28:33.856Z,101464.41
2018-09-26T19:31:02.677Z,101458.41
2018-09-26T19:33:30.510Z,101463.58
2018-09-26T19:35:58.069Z,101467.37
2018-09-26T19:38:27.250Z,101466.26
2018-09-26T19:40:58.247Z,101462.61
2018-09-26T19:43:29.625Z,101470.43
2018-09-26T19:45:58.416Z,101461.66
2018-09-26T19:48:26.977Z,101464.55
2018-09-26T19:50:56.303Z,101471.12
2018-09-26T19:53:25.094Z,101467.41
2018-09-26T19:55:53.273Z,101467.70
2018-09-26T19:58:22.144Z,101471.26
2018-09-26T20:01:01.048Z,101478.41
2018-09-26T20:03:29.593Z,101487.88
2018-09-26T20:05:59.474Z,101479.08
2018-09-26T20:08:31.204Z,101480.45
2018-09-26T20:10:59.777Z,101482.04
2018-09-26T20:13:27.398Z,101480.91
2018-09-26T20:15:55.384Z,101483.40
2018-09-26T20:18:25.929Z,101480.52
2018-09-26T20:20:53.530Z,101493.58
2018-09-26T20:23:23.754Z,101495.20
2018-09-26T20:25:53.023Z,101487.39
2018-09-26T20:28:21.537Z,101486.59
2018-09-26T20:30:50.423Z,101481.92
2018-09-26T20:33:18.267Z,101481.55
2018-09-26T20:35:46.414Z,101480.33
2018-09-26T20:38:16.106Z,101487.08
2018-09-26T20:40:43.730Z,101481.36
2018-09-26T20:43:11.551Z,101476.70
2018-09-26T20:45:39.401Z,101471.53
2018-09-26T20:48:07.589Z,101462.86
2018-09-26T20:50:35.561Z,101463.53
2018-09-26T20:53:03.530Z,101463.83
2018-09-26T20:55:31.069Z,101459.73
2018-09-26T20:57:59.615Z,101461.91
2018-09-26T21:00:27.542Z,101467.83
2018-09-26T21:02:57.201Z,101469.53
2018-09-26T21:05:24.782Z,101477.53
2018-09-26T21:10:27.596Z,101471.03
2018-09-26T21:12:56.628Z,101475.70
2018-09-26T21:15:27.985Z,101475.10
2018-09-26T21:17:55.557Z,101478.84
2018-09-26T21:20:25.400Z,101482.17
2018-09-26T21:22:53.316Z,101481.48
2018-09-26T21:25:20.845Z,101489.66
2018-09-26T21:27:49.337Z,101492.89
2018-09-26T21:30:17.717Z,101491.31
2018-09-26T21:32:46.603Z,101491.70
2018-09-26T21:35:16.999Z,101492.05
2018-09-26T21:37:45.486Z,101478.22
2018-09-26T21:40:13.505Z,101469.92
2018-09-26T21:42:42.089Z,101474.22
2018-09-26T21:45:09.681Z,101480.20
2018-09-26T21:47:38.343Z,101480.70
2018-09-26T21:50:06.927Z,101477.27
2018-09-26T21:52:35.452Z,101469.92
2018-09-26T21:55:03.432Z,101467.71
2018-09-26T21:57:33.002Z,101466.98
2018-09-26T22:00:00.660Z,101464.88
2018-09-26T22:02:29.289Z,101465.40
2018-09-26T22:04:56.849Z,101467.14
2018-09-26T22:07:24.364Z,101462.61
2018-09-26T22:09:52.281Z,101454.63
2018-09-26T22:12:19.796Z,101461.31
2018-09-26T22:14:47.292Z,101470.67
2018-09-26T22:17:15.211Z,101478.31
2018-09-26T22:19:42.776Z,101475.45
2018-09-26T22:22:10.344Z,101479.81
2018-09-26T22:24:38.325Z,101471.99
2018-09-26T22:27:05.860Z,101467.87
2018-09-26T22:29:33.402Z,101463.55
2018-09-26T22:32:01.397Z,101461.58
2018-09-26T22:34:29.018Z,101458.05
2018-09-26T22:36:57.190Z,101458.33
2018-09-26T22:39:25.140Z,101458.98
2018-09-26T22:41:53.663Z,101460.39
2018-09-26T22:44:22.312Z,101459.71
2018-09-26T22:46:51.013Z,101458.65
2018-09-26T22:49:18.578Z,101457.66
2018-09-26T22:51:46.983Z,101458.59
2018-09-26T22:54:14.611Z,101456.65
2018-09-26T22:56:42.692Z,101463.88
2018-09-26T22:59:11.261Z,101463.50
2018-09-26T23:01:40.823Z,101460.16
2018-09-26T23:04:08.550Z,101453.38
2018-09-26T23:06:36.103Z,101456.38
2018-09-26T23:09:05.278Z,101456.27
2018-09-26T23:11:33.423Z,101458.80
2018-09-26T23:14:01.518Z,101454.20
2018-09-26T23:16:29.460Z,101455.15
2018-09-26T23:18:57.000Z,101455.79
2018-09-26T23:21:25.384Z,101452.82
2018-09-26T23:23:53.361Z,101469.94
2018-09-26T23:26:20.868Z,101470.09
2018-09-26T23:28:48.454Z,101460.71
2018-09-26T23:31:16.351Z,101466.78
2018-09-26T23:33:43.858Z,101460.84
2018-09-26T23:36:11.393Z,101459.28
2018-09-26T23:38:39.236Z,101461.24
2018-09-26T23:41:06.763Z,101461.05
2018-09-26T23:43:34.308Z,101453.69
2018-09-26T23:46:02.210Z,101455.66
2018-09-26T23:48:30.426Z,101456.22
2018-09-26T23:50:58.009Z,101459.91
2018-09-26T23:53:25.568Z,101461.38
2018-09-26T23:55:53.077Z,101453.50
2018-09-26T23:58:21.256Z,101454.52
